Bookmark and Share
Track history (hours):
 

Pacific Galaxy

Last reported at 2014-Apr-08 18:32 UTC. Time now 2014-Apr-19 09:27 UTC.
Position N 01°15' E 103°24'.
Warning: this ship's position is 10 days out of date.

Length 246 m; draft 8 m.

Type: Ship. MMSI: 356075000.

NotesDate/timePositionNaut miles runAvg speedWind from/ knotsBaromVisibWave heightAir tempDewpointWater temp
2014-Apr-08 18:32N 01°15' E 103°24'1313.5
2014-Apr-08 17:33N 01°11' E 103°37'1110.9
2014-Apr-08 16:33N 01°10' E 103°47'9 9.2
2014-Apr-08 15:33N 01°14' E 103°56'2 1.9
2014-Apr-08 14:33N 01°15' E 103°54'0 0.0
2014-Apr-08 12:23N 01°15' E 103°54'0 0.0
2014-Apr-08 10:23N 01°15' E 103°54'0 0.1
2014-Apr-08 09:11N 01°15' E 103°54'0 0.0
2014-Apr-07 21:23N 01°15' E 103°54'0 0.1
2014-Apr-07 19:32N 01°15' E 103°54'0 0.0
2014-Apr-07 17:17N 01°15' E 103°54'0 0.0
2014-Apr-07 16:26N 01°15' E 103°54'0 0.0
2014-Apr-07 15:26N 01°15' E 103°54'0 0.0
2014-Apr-07 14:26N 01°15' E 103°54'0 0.0
2014-Apr-07 13:29N 01°15' E 103°54'0 0.0
2014-Apr-07 12:23N 01°15' E 103°54'0 0.0
2014-Apr-07 11:20N 01°15' E 103°54'0 0.0
2014-Apr-07 10:26N 01°15' E 103°54'0 0.0
2014-Apr-07 08:20N 01°15' E 103°54'0 0.0
2014-Apr-06 23:29N 01°15' E 103°54'0 0.0
2014-Apr-06 20:29N 01°15' E 103°54'0 0.1
2014-Apr-06 19:32N 01°15' E 103°54'0 0.1
2014-Apr-06 18:11N 01°15' E 103°54'0 0.0
2014-Apr-06 17:32N 01°15' E 103°54'0 0.0
2014-Apr-06 16:20N 01°15' E 103°54'0 0.0
2014-Apr-06 15:32N 01°15' E 103°54'0 0.0
2014-Apr-06 14:32N 01°15' E 103°54'0 0.0
2014-Apr-06 13:29N 01°15' E 103°54'0 0.0
2014-Apr-06 12:29N 01°15' E 103°54'0 0.0
2014-Apr-06 11:32N 01°15' E 103°54'0 0.0
2014-Apr-06 10:29N 01°15' E 103°54'0 0.0
2014-Apr-06 09:29N 01°15' E 103°54'0 0.0
2014-Apr-06 07:17N 01°15' E 103°54'0 0.0
2014-Apr-06 06:05N 01°15' E 103°54'0 0.1
2014-Apr-06 05:29N 01°15' E 103°54'0 0.2
2014-Apr-06 04:17N 01°15' E 103°54'0 0.0
2014-Apr-05 21:32N 01°15' E 103°54'0 0.0
2014-Apr-05 20:17N 01°15' E 103°54'0 0.0
2014-Apr-05 19:29N 01°15' E 103°54'0 0.1
2014-Apr-05 17:17N 01°15' E 103°54'0 0.1
2014-Apr-05 16:29N 01°15' E 103°54'0 0.0
2014-Apr-05 15:29N 01°15' E 103°54'0 0.1
2014-Apr-05 14:29N 01°15' E 103°54'0 0.0
2014-Apr-05 13:23N 01°15' E 103°54'0 0.0
2014-Apr-05 12:32N 01°15' E 103°54'0 0.0
2014-Apr-05 10:29N 01°15' E 103°54'0 0.1
2014-Apr-05 09:32N 01°15' E 103°54'0 0.0
2014-Apr-05 05:29N 01°15' E 103°54'0 0.1
2014-Apr-05 03:26N 01°16' E 103°54'0 0.1
2014-Apr-05 02:23N 01°15' E 103°54'0 0.1
2014-Apr-05 01:29N 01°16' E 103°54'0 0.0
2014-Apr-04 22:29N 01°16' E 103°54'0 0.0
2014-Apr-04 21:32N 01°16' E 103°54'0 0.2
2014-Apr-04 20:28N 01°15' E 103°54'7 7.2
2014-Apr-04 19:33N 01°12' E 103°48'7 7.0
2014-Apr-04 18:33N 01°14' E 103°42'0 0.3
2014-Apr-04 17:33N 01°14' E 103°41'0 0.0
2014-Apr-04 16:33N 01°14' E 103°41'0 0.0
2014-Apr-03 09:24N 01°14' E 103°41'1 0.6
2014-Apr-03 08:33N 01°14' E 103°41'4 3.6
2014-Apr-03 07:33N 01°10' E 103°42'9 9.3
2014-Apr-03 06:33N 01°12' E 103°51'5 2.6
2014-Apr-03 04:33N 01°15' E 103°55'0 0.1
2014-Apr-03 01:29N 01°15' E 103°55'4 3.5
2014-Apr-03 00:20N 01°16' E 103°59'4 0.1
2014-Apr-01 06:33N 01°13' E 103°56'10 9.6
2014-Apr-01 05:33N 01°10' E 103°47'10 9.5
2014-Apr-01 04:33N 01°04' E 103°40'8 8.1
2014-Apr-01 03:33N 01°08' E 103°33'7 7.4
2014-Apr-01 02:33N 01°10' E 103°41'1 1.3
2014-Apr-01 01:33N 01°11' E 103°42'0 0.1
2014-Apr-01 00:31N 01°11' E 103°42'0 0.0
2014-Mar-31 23:31N 01°11' E 103°42'0 0.2
2014-Mar-31 22:28N 01°11' E 103°42'0 0.1
2014-Mar-31 21:28N 01°11' E 103°42'0 0.0
2014-Mar-31 20:31N 01°11' E 103°42'0 0.0
2014-Mar-31 19:13N 01°11' E 103°42'0 0.0
2014-Mar-31 18:31N 01°11' E 103°42'0 0.0
2014-Mar-31 17:31N 01°11' E 103°42'0 0.0
2014-Mar-31 16:31N 01°11' E 103°42'0 0.1
2014-Mar-31 15:31N 01°11' E 103°42'0 0.1
2014-Mar-31 14:31N 01°11' E 103°42'0 0.1
2014-Mar-31 13:25N 01°11' E 103°42'0 0.0
2014-Mar-31 12:28N 01°11' E 103°42'0 0.0
2014-Mar-31 11:31N 01°11' E 103°42'0 0.0
2014-Mar-31 10:28N 01°11' E 103°42'0 0.1
2014-Mar-31 09:28N 01°11' E 103°42'0 0.1
2014-Mar-31 08:31N 01°11' E 103°42'0 0.1
2014-Mar-31 07:28N 01°11' E 103°42'0 0.2
2014-Mar-31 06:22N 01°11' E 103°42'0 0.1
2014-Mar-31 05:28N 01°11' E 103°42'0 0.1
2014-Mar-31 04:31N 01°11' E 103°42'0 0.1
2014-Mar-31 03:31N 01°11' E 103°42'0 0.1
2014-Mar-31 02:31N 01°11' E 103°42'0 0.0
2014-Mar-31 01:31N 01°11' E 103°42'0 0.0
2014-Mar-31 00:31N 01°11' E 103°42'0 0.0
2014-Mar-30 23:31N 01°11' E 103°42'0 0.0
2014-Mar-30 22:31N 01°11' E 103°42'0 0.1
2014-Mar-30 21:28N 01°11' E 103°42'0 0.2
2014-Mar-30 20:31N 01°11' E 103°42'0 0.1
2014-Mar-30 19:31N 01°11' E 103°42'0 0.1
2014-Mar-30 18:31N 01°11' E 103°42'0 0.0
2014-Mar-30 17:25N 01°11' E 103°42'0 0.1
2014-Mar-30 16:31N 01°11' E 103°42'0 0.1
2014-Mar-30 15:31N 01°11' E 103°42'0 0.1
2014-Mar-30 14:28N 01°11' E 103°42'0 0.1
2014-Mar-30 13:31N 01°11' E 103°42'0 0.1
2014-Mar-30 12:31N 01°11' E 103°42'0 0.0
2014-Mar-30 11:16N 01°11' E 103°42'0 0.0
2014-Mar-30 10:28N 01°11' E 103°42'0 0.1
2014-Mar-30 09:31N 01°11' E 103°42'0 0.1
2014-Mar-30 08:31N 01°11' E 103°42'0 0.1
2014-Mar-30 07:25N 01°11' E 103°42'0 0.0
2014-Mar-30 06:31N 01°11' E 103°42'0 0.1
2014-Mar-30 05:28N 01°11' E 103°42'0 0.0
2014-Mar-30 04:31N 01°11' E 103°42'0 0.1
2014-Mar-30 03:31N 01°11' E 103°42'0 0.1
2014-Mar-30 02:31N 01°11' E 103°42'0 0.0
2014-Mar-30 01:25N 01°11' E 103°42'0 0.1
2014-Mar-30 00:25N 01°11' E 103°42'0 0.0
2014-Mar-29 23:28N 01°11' E 103°42'0 0.0
2014-Mar-29 22:31N 01°11' E 103°42'0 0.0
2014-Mar-29 21:28N 01°11' E 103°42'0 0.0
2014-Mar-29 20:31N 01°11' E 103°42'0 0.2
2014-Mar-29 19:31N 01°11' E 103°42'  

Dump ship's entire track history

sailing weather and tide predictions

Pacific Galaxy — 3FMN2 — position and weather